createdAt,value
2023-01-23T00:00:47.681Z,6.13
2023-01-23T00:03:15.230Z,5.70
2023-01-23T00:05:42.714Z,6.00
2023-01-23T00:08:10.154Z,6.30
2023-01-23T00:10:40.128Z,5.60
2023-01-23T00:13:07.612Z,5.90
2023-01-23T00:15:35.159Z,6.07
2023-01-23T00:18:02.589Z,6.10
2023-01-23T00:20:30.032Z,6.60
2023-01-23T00:22:57.488Z,6.50
2023-01-23T00:25:24.952Z,6.97
2023-01-23T00:27:52.462Z,6.27
2023-01-23T00:30:20.104Z,6.27
2023-01-23T00:32:47.677Z,6.53
2023-01-23T00:35:17.374Z,6.37
2023-01-23T00:37:45.164Z,5.90
2023-01-23T00:40:13.377Z,6.17
2023-01-23T00:42:40.930Z,6.70
2023-01-23T00:45:08.855Z,6.10
2023-01-23T00:47:36.296Z,6.87
2023-01-23T00:50:03.764Z,6.67
2023-01-23T00:52:31.217Z,6.80
2023-01-23T00:54:58.656Z,5.93
2023-01-23T00:57:26.106Z,6.40
2023-01-23T00:59:53.591Z,6.90
2023-01-23T01:02:23.522Z,6.47
2023-01-23T01:04:51.000Z,6.20
2023-01-23T01:07:18.456Z,6.43
2023-01-23T01:09:47.974Z,7.13
2023-01-23T01:12:17.130Z,6.70
2023-01-23T01:14:44.644Z,6.93
2023-01-23T01:17:12.035Z,6.37
2023-01-23T01:19:39.464Z,6.37
2023-01-23T01:22:06.929Z,6.53
2023-01-23T01:24:34.462Z,6.67
2023-01-23T01:27:01.902Z,7.10
2023-01-23T01:29:29.376Z,6.40
2023-01-23T01:31:56.859Z,7.10
2023-01-23T01:34:24.396Z,6.70
2023-01-23T01:36:51.989Z,7.17
2023-01-23T01:39:19.899Z,6.47
2023-01-23T01:41:50.047Z,6.47
2023-01-23T01:44:18.998Z,7.43
2023-01-23T01:46:47.001Z,6.60
2023-01-23T01:49:26.340Z,7.70
2023-01-23T01:51:54.387Z,7.13
2023-01-23T01:54:23.265Z,7.00
2023-01-23T01:56:53.223Z,6.70
2023-01-23T01:59:22.505Z,6.63
2023-01-23T02:01:52.680Z,7.37
2023-01-23T02:04:20.402Z,6.47
2023-01-23T02:06:47.997Z,6.83
2023-01-23T02:09:16.062Z,6.57
2023-01-23T02:11:44.262Z,7.17
2023-01-23T02:14:12.452Z,7.57
2023-01-23T02:16:46.544Z,7.10
2023-01-23T02:19:23.925Z,7.93
2023-01-23T02:21:54.553Z,7.17
2023-01-23T02:24:34.974Z,7.23
2023-01-23T02:27:04.738Z,7.47
2023-01-23T02:29:43.447Z,7.00
2023-01-23T02:32:11.234Z,7.00
2023-01-23T02:34:38.960Z,7.53
2023-01-23T02:37:07.427Z,6.87
2023-01-23T02:39:35.057Z,6.80
2023-01-23T02:42:05.992Z,7.07
2023-01-23T02:44:45.595Z,7.27
2023-01-23T02:47:15.269Z,7.50
2023-01-23T02:49:42.998Z,7.30
2023-01-23T02:52:11.527Z,7.37
2023-01-23T02:54:40.798Z,6.20
2023-01-23T02:57:08.514Z,6.67
2023-01-23T02:59:54.740Z,6.67
2023-01-23T03:02:22.455Z,6.67
2023-01-23T03:04:49.985Z,6.53
2023-01-23T03:07:17.511Z,7.13
2023-01-23T03:09:47.948Z,7.33
2023-01-23T03:12:16.304Z,6.40
2023-01-23T03:14:43.774Z,6.53
2023-01-23T03:17:14.841Z,6.70
2023-01-23T03:19:42.786Z,6.53
2023-01-23T03:22:10.300Z,6.70
2023-01-23T03:24:39.799Z,6.70
2023-01-23T03:27:07.292Z,6.13
2023-01-23T03:29:59.791Z,6.90
2023-01-23T03:32:27.341Z,6.13
2023-01-23T03:34:56.356Z,6.20
2023-01-23T03:37:23.965Z,6.73
2023-01-23T03:40:10.832Z,6.77
2023-01-23T03:42:38.290Z,6.37
2023-01-23T03:45:09.022Z,7.00
2023-01-23T03:47:37.089Z,6.90
2023-01-23T03:50:06.877Z,6.37
2023-01-23T03:52:38.187Z,7.10
2023-01-23T03:55:07.461Z,6.53
2023-01-23T03:57:35.064Z,6.67
2023-01-23T04:00:22.873Z,5.97
2023-01-23T04:03:04.665Z,6.30
2023-01-23T04:05:32.255Z,5.90
2023-01-23T04:08:00.934Z,6.27
2023-01-23T04:10:28.696Z,6.13
2023-01-23T04:13:02.448Z,6.37
2023-01-23T04:15:30.251Z,6.33
2023-01-23T04:18:00.799Z,6.43
2023-01-23T04:20:29.758Z,6.00
2023-01-23T04:22:58.569Z,6.57
2023-01-23T04:25:29.323Z,6.80
2023-01-23T04:27:59.320Z,6.57
2023-01-23T04:30:26.867Z,6.03
2023-01-23T04:32:55.358Z,6.07
2023-01-23T04:35:23.569Z,6.17
2023-01-23T04:37:54.733Z,5.90
2023-01-23T04:40:22.751Z,6.03
2023-01-23T04:42:56.603Z,5.63
2023-01-23T04:45:41.811Z,6.40
2023-01-23T04:48:27.904Z,5.53
2023-01-23T04:50:55.486Z,6.67
2023-01-23T04:53:23.028Z,6.37
2023-01-23T04:55:57.873Z,6.23
2023-01-23T05:08:54.024Z,6.17
2023-01-23T05:11:30.823Z,6.40
2023-01-23T05:13:58.894Z,6.70
2023-01-23T05:16:26.905Z,5.93
2023-01-23T05:19:13.160Z,6.03
2023-01-23T05:21:41.530Z,6.13
2023-01-23T05:24:13.303Z,6.03
2023-01-23T05:26:42.939Z,6.87
2023-01-23T05:29:10.472Z,6.17
2023-01-23T05:31:46.531Z,6.33
2023-01-23T05:34:32.558Z,6.57
2023-01-23T05:37:03.367Z,5.77
2023-01-23T05:39:34.435Z,5.73
2023-01-23T05:42:02.473Z,5.73
2023-01-23T05:44:48.668Z,5.87
2023-01-23T05:47:27.896Z,6.57
2023-01-23T05:49:59.410Z,6.50
2023-01-23T05:52:32.645Z,6.13
2023-01-23T05:55:00.537Z,5.73
2023-01-23T05:57:29.240Z,5.87
2023-01-23T06:00:22.977Z,6.00
2023-01-23T06:03:25.720Z,6.13
2023-01-23T06:06:08.596Z,5.43
2023-01-23T06:08:36.123Z,5.80
2023-01-23T06:11:04.375Z,5.93
2023-01-23T06:13:31.814Z,6.13
2023-01-23T06:15:59.558Z,5.50
2023-01-23T06:18:27.345Z,5.77
2023-01-23T06:20:58.654Z,5.93
2023-01-23T06:23:26.402Z,5.93
2023-01-23T06:25:54.017Z,6.10
2023-01-23T06:28:21.589Z,6.37
2023-01-23T06:30:49.367Z,5.73
2023-01-23T06:33:26.075Z,5.63
2023-01-23T06:35:58.110Z,6.03
2023-01-23T06:38:25.785Z,5.77
2023-01-23T06:40:54.079Z,5.67
2023-01-23T06:43:35.747Z,6.27
2023-01-23T06:46:04.190Z,6.43
2023-01-23T06:48:32.108Z,6.40
2023-01-23T06:51:00.818Z,6.40
2023-01-23T06:53:28.648Z,5.53
2023-01-23T06:56:00.657Z,6.17
2023-01-23T06:58:29.587Z,5.67
2023-01-23T07:00:57.230Z,6.03
2023-01-23T07:03:53.804Z,5.93
2023-01-23T07:06:21.573Z,5.50
2023-01-23T07:08:50.147Z,6.03
2023-01-23T07:11:17.720Z,5.37
2023-01-23T07:13:45.218Z,5.87
2023-01-23T07:16:14.884Z,5.67
2023-01-23T07:18:42.555Z,5.80
2023-01-23T07:21:10.897Z,6.30
2023-01-23T07:23:39.016Z,5.63
2023-01-23T07:26:10.344Z,6.30
2023-01-23T07:28:38.338Z,5.97
2023-01-23T07:31:06.234Z,5.93
2023-01-23T07:33:33.787Z,6.07
2023-01-23T07:36:01.322Z,5.60
2023-01-23T07:38:28.844Z,6.40
2023-01-23T07:40:59.088Z,6.10
2023-01-23T07:43:26.996Z,6.50
2023-01-23T07:45:54.564Z,5.70
2023-01-23T07:48:22.113Z,5.90
2023-01-23T07:50:49.624Z,5.87
2023-01-23T07:53:17.360Z,6.07
2023-01-23T07:55:44.871Z,5.67
2023-01-23T07:58:12.339Z,6.13
2023-01-23T08:00:41.889Z,6.53
2023-01-23T08:03:09.392Z,6.27
2023-01-23T08:05:36.866Z,6.43
2023-01-23T08:08:13.053Z,6.30
2023-01-23T08:10:41.651Z,6.13
2023-01-23T08:13:09.144Z,5.77
2023-01-23T08:15:38.538Z,5.70
2023-01-23T08:18:06.014Z,5.47
2023-01-23T08:20:33.550Z,6.50
2023-01-23T08:23:02.396Z,6.33
2023-01-23T08:25:30.063Z,5.47
2023-01-23T08:27:57.676Z,5.77
2023-01-23T08:30:25.190Z,6.10
2023-01-23T08:32:52.695Z,6.00
2023-01-23T08:35:20.137Z,6.83
2023-01-23T08:37:47.558Z,5.97
2023-01-23T08:40:15.043Z,5.73
2023-01-23T08:42:42.469Z,6.03
2023-01-23T08:45:10.093Z,5.57
2023-01-23T08:47:38.240Z,6.23
2023-01-23T08:50:06.407Z,5.80
2023-01-23T08:52:35.392Z,5.87
2023-01-23T08:55:03.133Z,5.87
2023-01-23T08:57:30.706Z,5.80
2023-01-23T08:59:58.245Z,5.93
2023-01-23T09:02:25.777Z,5.90
2023-01-23T09:04:53.442Z,6.23
2023-01-23T09:07:20.953Z,6.10
2023-01-23T09:09:48.402Z,6.00
2023-01-23T09:12:15.885Z,6.07
2023-01-23T09:14:43.418Z,5.87
2023-01-23T09:17:10.957Z,5.40
2023-01-23T09:19:38.407Z,5.83
2023-01-23T09:22:07.103Z,5.80
2023-01-23T09:24:34.598Z,5.43
2023-01-23T09:27:02.063Z,5.97
2023-01-23T09:29:29.497Z,5.27
2023-01-23T09:31:58.614Z,5.73
2023-01-23T09:34:26.184Z,5.67
2023-01-23T09:36:53.597Z,5.93
2023-01-23T09:39:21.159Z,6.10
2023-01-23T09:41:49.119Z,5.77
2023-01-23T09:44:21.224Z,5.77
2023-01-23T09:46:50.943Z,5.60
2023-01-23T09:49:27.463Z,5.33
2023-01-23T09:51:57.896Z,5.03
2023-01-23T09:54:28.336Z,5.90
2023-01-23T09:56:56.563Z,5.87
2023-01-23T09:59:26.740Z,5.77
2023-01-23T10:01:54.168Z,6.37
2023-01-23T10:04:21.981Z,5.40
2023-01-23T10:06:49.368Z,5.73
2023-01-23T10:09:42.514Z,5.67
2023-01-23T10:12:18.878Z,5.73
2023-01-23T10:14:57.658Z,5.07
2023-01-23T10:17:38.404Z,5.20
2023-01-23T10:20:41.491Z,5.83
2023-01-23T10:23:08.920Z,5.60
2023-01-23T10:25:37.774Z,5.60
2023-01-23T10:28:21.247Z,5.70
2023-01-23T10:30:50.553Z,4.83
2023-01-23T10:33:18.936Z,5.50
2023-01-23T10:35:53.824Z,5.47
2023-01-23T10:38:30.869Z,5.37
2023-01-23T10:41:16.816Z,5.67
2023-01-23T10:43:45.812Z,5.20
2023-01-23T10:46:16.229Z,5.70
2023-01-23T10:48:43.748Z,5.10
2023-01-23T10:51:50.776Z,5.47
2023-01-23T10:54:36.308Z,5.17
2023-01-23T10:57:19.547Z,5.63
2023-01-23T10:59:47.036Z,5.20
2023-01-23T11:02:14.716Z,5.93
2023-01-23T11:04:43.402Z,5.23
2023-01-23T11:07:16.410Z,4.83
2023-01-23T11:09:46.710Z,5.23
2023-01-23T11:12:22.047Z,4.93
2023-01-23T11:14:49.547Z,5.23
2023-01-23T11:17:25.267Z,4.87
2023-01-23T11:19:54.532Z,5.03
2023-01-23T11:22:28.022Z,4.73
2023-01-23T11:24:55.522Z,5.40
2023-01-23T11:27:28.430Z,5.50
2023-01-23T11:30:14.153Z,5.27
2023-01-23T11:33:08.051Z,5.30
2023-01-23T11:35:35.484Z,5.10
2023-01-23T11:38:04.748Z,5.13
2023-01-23T11:40:32.266Z,4.93
2023-01-23T11:42:59.693Z,5.00
2023-01-23T11:45:29.877Z,4.90
2023-01-23T11:48:06.340Z,4.90
2023-01-23T11:50:54.131Z,4.77
2023-01-23T11:53:42.323Z,5.03
2023-01-23T11:56:21.395Z,4.53
2023-01-23T11:58:50.634Z,5.10
2023-01-23T12:01:30.220Z,4.37
2023-01-23T12:04:15.829Z,4.53
2023-01-23T12:06:58.851Z,4.80
2023-01-23T12:09:28.631Z,4.90
2023-01-23T12:12:05.640Z,5.07
2023-01-23T12:14:33.024Z,5.00
2023-01-23T12:17:09.849Z,4.80
2023-01-23T12:19:52.322Z,5.07
2023-01-23T12:22:35.012Z,4.63
2023-01-23T12:25:02.443Z,4.47
2023-01-23T12:27:35.969Z,4.70
2023-01-23T12:30:24.392Z,4.77
2023-01-23T12:33:06.587Z,4.83
2023-01-23T12:35:44.641Z,5.07
2023-01-23T12:38:22.266Z,4.43
2023-01-23T12:40:53.566Z,5.03
2023-01-23T12:43:41.255Z,4.80
2023-01-23T12:46:15.162Z,4.77
2023-01-23T12:48:58.155Z,4.77
2023-01-23T12:51:30.364Z,4.63
2023-01-23T12:53:59.038Z,4.33
2023-01-23T12:56:27.967Z,4.70
2023-01-23T12:59:08.108Z,4.70
2023-01-23T13:01:47.633Z,4.70
2023-01-23T13:04:24.120Z,4.60
2023-01-23T13:07:17.885Z,4.43
2023-01-23T13:10:02.572Z,4.70
2023-01-23T13:12:30.244Z,4.20
2023-01-23T13:15:22.660Z,4.40
2023-01-23T13:18:02.746Z,3.93
2023-01-23T13:20:48.880Z,4.20
2023-01-23T13:23:24.403Z,4.60
2023-01-23T13:26:11.852Z,4.00
2023-01-23T13:28:45.610Z,3.90
2023-01-23T13:31:27.934Z,4.47
2023-01-23T13:34:06.744Z,4.10
2023-01-23T13:36:42.010Z,3.97
2023-01-23T13:39:19.737Z,4.07
2023-01-23T13:41:50.530Z,3.60
2023-01-23T13:44:18.366Z,3.57
2023-01-23T14:21:39.973Z,4.63
2023-01-23T14:24:24.505Z,4.63
2023-01-23T14:26:53.342Z,5.03
2023-01-23T14:29:26.814Z,5.80
2023-01-23T14:31:55.397Z,5.73
2023-01-23T14:34:24.272Z,5.50
2023-01-23T14:36:53.325Z,5.67
2023-01-23T14:39:31.237Z,5.50
2023-01-23T14:42:02.624Z,5.20
2023-01-23T14:44:34.831Z,4.73
2023-01-23T14:47:05.155Z,5.43
2023-01-23T14:49:34.737Z,5.50
2023-01-23T14:52:03.930Z,5.50
2023-01-23T14:54:33.379Z,5.70
2023-01-23T14:57:05.663Z,5.40
2023-01-23T14:59:33.216Z,5.17
2023-01-23T15:02:10.345Z,5.10
2023-01-23T15:04:40.659Z,5.70
2023-01-23T15:07:16.617Z,5.00
2023-01-23T15:09:45.857Z,5.63
2023-01-23T15:12:17.166Z,5.40
2023-01-23T15:14:45.494Z,5.50
2023-01-23T15:17:19.112Z,5.40
2023-01-23T15:19:51.973Z,5.03
2023-01-23T15:22:22.042Z,5.50
2023-01-23T15:24:49.616Z,5.30
2023-01-23T15:27:35.853Z,5.63
2023-01-23T15:30:21.993Z,4.73
2023-01-23T15:32:49.485Z,4.93
2023-01-23T15:35:18.245Z,5.60
2023-01-23T15:37:49.785Z,5.07
2023-01-23T15:40:19.743Z,5.63
2023-01-23T15:43:04.247Z,5.50
2023-01-23T15:45:31.845Z,5.27
2023-01-23T15:47:59.344Z,6.77
2023-01-23T15:50:27.764Z,7.70
2023-01-23T15:52:55.956Z,7.67
2023-01-23T15:55:26.021Z,8.40
2023-01-23T15:57:54.324Z,6.80
2023-01-23T16:00:21.899Z,7.73
2023-01-23T16:02:56.374Z,8.03
2023-01-23T16:05:25.771Z,7.47
2023-01-23T16:07:53.484Z,6.60
2023-01-23T16:10:21.293Z,6.50
2023-01-23T16:12:49.856Z,7.20
2023-01-23T16:15:18.400Z,6.70
2023-01-23T16:17:46.206Z,9.33
2023-01-23T16:20:14.619Z,6.70
2023-01-23T16:22:42.411Z,8.57
2023-01-23T16:25:43.011Z,8.47
2023-01-23T16:28:14.386Z,7.97
2023-01-23T16:30:42.029Z,8.63
2023-01-23T16:33:09.594Z,7.60
2023-01-23T16:35:37.094Z,8.03
2023-01-23T16:38:04.705Z,7.50
2023-01-23T16:40:32.745Z,6.90
2023-01-23T16:43:03.753Z,7.87
2023-01-23T16:45:32.237Z,7.40
2023-01-23T16:48:00.329Z,7.97
2023-01-23T16:50:35.675Z,8.57
2023-01-23T16:53:29.580Z,8.80
2023-01-23T16:55:57.725Z,8.50
2023-01-23T16:58:27.529Z,7.17
2023-01-23T17:01:00.098Z,6.90
2023-01-23T17:03:29.418Z,6.90
2023-01-23T17:05:56.855Z,7.80
2023-01-23T17:08:25.091Z,7.07
2023-01-23T17:10:53.922Z,6.83
2023-01-23T17:13:22.505Z,7.10
2023-01-23T17:15:51.228Z,6.97
2023-01-23T17:18:21.623Z,6.80
2023-01-23T17:20:49.495Z,6.47
2023-01-23T17:23:17.044Z,7.03
2023-01-23T17:25:59.900Z,6.80
2023-01-23T17:28:28.751Z,7.37
2023-01-23T17:30:56.510Z,6.43
2023-01-23T17:33:25.741Z,6.63
2023-01-23T17:35:53.635Z,6.37
2023-01-23T17:38:25.523Z,5.90
2023-01-23T17:40:53.555Z,6.57
2023-01-23T17:43:21.696Z,6.40
2023-01-23T17:45:50.848Z,6.27
2023-01-23T17:48:29.093Z,6.17
2023-01-23T17:50:56.865Z,6.27
2023-01-23T17:53:24.323Z,6.40
2023-01-23T17:55:52.943Z,5.83
2023-01-23T17:58:20.973Z,6.30
2023-01-23T18:00:51.004Z,5.63
2023-01-23T18:03:21.776Z,6.10
2023-01-23T18:05:49.562Z,5.93
2023-01-23T18:08:22.130Z,6.17
2023-01-23T18:10:52.182Z,6.20
2023-01-23T18:13:34.626Z,5.53
2023-01-23T18:16:20.239Z,5.30
2023-01-23T18:18:53.105Z,6.20
2023-01-23T18:21:21.361Z,6.33
2023-01-23T18:23:48.947Z,5.87
2023-01-23T18:26:22.719Z,5.97
2023-01-23T18:28:53.336Z,5.70
2023-01-23T18:31:29.395Z,6.00
2023-01-23T18:34:06.025Z,5.83
2023-01-23T18:36:33.471Z,6.20
2023-01-23T18:39:19.844Z,6.10
2023-01-23T18:42:05.667Z,5.43
2023-01-23T18:44:34.835Z,5.87
2023-01-23T18:47:05.810Z,5.67
2023-01-23T18:49:33.637Z,5.70
2023-01-23T18:52:05.965Z,5.70
2023-01-23T18:54:38.962Z,5.60
2023-01-23T18:57:26.058Z,6.00
2023-01-23T19:00:02.650Z,6.00
2023-01-23T19:02:46.606Z,5.93
2023-01-23T19:05:14.126Z,5.93
2023-01-23T19:07:41.643Z,6.40
2023-01-23T19:10:14.203Z,6.23
2023-01-23T19:13:00.579Z,6.73
2023-01-23T19:15:43.174Z,6.70
2023-01-23T19:18:16.634Z,5.70
2023-01-23T19:20:50.479Z,6.17
2023-01-23T19:23:20.967Z,6.13
2023-01-23T19:25:48.548Z,5.73
2023-01-23T19:28:16.258Z,6.13
2023-01-23T19:30:43.922Z,6.07
2023-01-23T19:33:21.071Z,5.20
2023-01-23T19:35:51.378Z,5.87
2023-01-23T19:38:18.916Z,5.43
2023-01-23T19:40:46.461Z,5.57
2023-01-23T19:43:15.765Z,5.63
2023-01-23T19:45:46.532Z,3.80
2023-01-23T19:48:14.599Z,5.90
2023-01-23T19:50:42.108Z,5.20
2023-01-23T19:53:11.487Z,5.90
2023-01-23T19:55:39.008Z,5.53
2023-01-23T19:58:06.739Z,5.50
2023-01-23T20:00:36.052Z,5.73
2023-01-23T20:03:05.029Z,5.37
2023-01-23T20:05:32.664Z,5.23
2023-01-23T20:08:09.135Z,5.07
2023-01-23T20:10:37.372Z,4.90
2023-01-23T20:13:04.877Z,5.57
2023-01-23T20:15:33.834Z,5.13
2023-01-23T20:18:01.269Z,4.93
2023-01-23T20:20:28.721Z,5.60
2023-01-23T20:22:56.187Z,5.87
2023-01-23T20:25:23.953Z,6.03
2023-01-23T20:27:51.544Z,5.57
2023-01-23T20:30:20.376Z,5.37
2023-01-23T20:32:49.139Z,5.60
2023-01-23T20:35:16.521Z,5.73
2023-01-23T20:37:44.054Z,5.47
2023-01-23T20:40:11.911Z,5.23
2023-01-23T20:42:39.590Z,5.40
2023-01-23T20:45:07.899Z,5.27
2023-01-23T20:47:38.769Z,5.27
2023-01-23T20:50:06.521Z,5.27
2023-01-23T20:52:52.521Z,4.93
2023-01-23T20:55:20.622Z,5.37
2023-01-23T20:58:10.148Z,5.33
2023-01-23T21:00:37.894Z,5.23
2023-01-23T21:03:05.450Z,5.57
2023-01-23T21:05:32.913Z,5.07
2023-01-23T21:08:00.360Z,5.27
2023-01-23T21:10:27.952Z,5.40
2023-01-23T21:12:55.551Z,5.40
2023-01-23T21:15:23.330Z,5.70
2023-01-23T21:17:51.045Z,5.10
2023-01-23T21:20:18.464Z,5.07
2023-01-23T21:22:45.896Z,4.93
2023-01-23T21:25:13.376Z,5.60
2023-01-23T21:27:40.873Z,5.30
2023-01-23T21:30:08.661Z,5.37
2023-01-23T21:32:36.106Z,5.37
2023-01-23T21:35:03.579Z,5.50
2023-01-23T21:37:32.078Z,5.80
2023-01-23T21:39:59.652Z,5.30
2023-01-23T21:42:27.075Z,4.67
2023-01-23T21:44:57.164Z,5.87
2023-01-23T21:47:24.652Z,5.73
2023-01-23T21:49:52.084Z,6.17
2023-01-23T21:52:19.600Z,5.23
2023-01-23T21:54:47.101Z,5.20
2023-01-23T21:57:14.501Z,5.87
2023-01-23T22:00:01.901Z,5.77
2023-01-23T22:02:39.434Z,5.57
2023-01-23T22:05:07.256Z,5.70
2023-01-23T22:07:34.709Z,5.20
2023-01-23T22:10:02.189Z,6.03
2023-01-23T22:12:29.573Z,5.80
2023-01-23T22:14:57.021Z,4.97
2023-01-23T22:17:24.567Z,5.53
2023-01-23T22:19:51.989Z,5.97
2023-01-23T22:22:20.279Z,5.57
2023-01-23T22:24:47.693Z,5.60
2023-01-23T22:27:15.136Z,5.33
2023-01-23T22:29:43.573Z,5.00
2023-01-23T22:32:11.235Z,5.43
2023-01-23T22:34:38.722Z,5.47
2023-01-23T22:37:06.310Z,5.47
2023-01-23T22:39:33.828Z,6.20
2023-01-23T22:42:02.854Z,6.10
2023-01-23T22:44:30.978Z,5.70
2023-01-23T22:46:58.417Z,6.07
2023-01-23T22:49:25.981Z,5.97
2023-01-23T22:51:53.455Z,6.13
2023-01-23T22:54:20.928Z,5.93
2023-01-23T22:56:48.406Z,6.10
2023-01-23T22:59:15.861Z,6.40
2023-01-23T23:01:43.260Z,6.50
2023-01-23T23:04:10.728Z,6.30
2023-01-23T23:06:38.127Z,5.97
2023-01-23T23:09:05.604Z,6.90
2023-01-23T23:11:33.322Z,6.43
2023-01-23T23:14:00.781Z,5.90
2023-01-23T23:16:30.933Z,6.07
2023-01-23T23:19:00.760Z,6.20
2023-01-23T23:21:30.480Z,6.47
2023-01-23T23:23:58.998Z,6.10
2023-01-23T23:26:28.233Z,5.90
2023-01-23T23:28:56.157Z,6.27
2023-01-23T23:31:23.920Z,5.97
2023-01-23T23:33:51.630Z,5.97
2023-01-23T23:36:19.214Z,5.57
2023-01-23T23:38:46.686Z,5.73
2023-01-23T23:41:15.484Z,5.73
2023-01-23T23:43:43.449Z,5.83
2023-01-23T23:46:11.447Z,5.60
2023-01-23T23:48:39.135Z,5.40
2023-01-23T23:51:08.847Z,5.50
2023-01-23T23:53:36.953Z,5.40
2023-01-23T23:56:04.620Z,6.00
2023-01-23T23:58:32.349Z,5.40
